Aeroporto :
LOGIN :

Iscrizione | Disclaimer

   EN    FR    IT 

 










Sommario :    VFR   VFR Marginale   IFR   IFR Intensivo   IFR Molto Intensivo
Visibilità : 
Base nubi : 
>= 8 km
>= 3000ft
5 / 8 km
1000 / 3000 ft
1500m / 5 km
500 / 1000 ft
800 / 1500m
200 / 500 ft
< 800m
< 200 ft
Simboli :   Temporali  Nebbia  Neve Forte  Precipitazioni Forti  Vento > 20 kt
SIGMETs :   Varie  Temporali  Ghiacco  Turbolenza  Onda orograficha  Ceneri Vulcaniche






- Altitudine del aeroporto : 1742 ft
- Codice IATA : SOF


LBSF - Sofia Int.

ULTIMO METAR :
  • 051630Z 20006KT 9999 SCT055 24/18 Q1013 NOSIG

METARs OBSOLETI :
  • 051600Z 21007KT 9999 FEW030CB SCT055 23/17 Q1013 NOSIG
  • 051530Z VRB06KT 9999 VCSH FEW030CB SCT045 BKN086 25/17 Q1013 TEMPO TSRA
  • 051500Z 18010KT 9999 VCSH FEW030CB SCT047 BKN059 26/16 Q1013 TEMPO SHRA
  • 051430Z 04008KT 360V080 9999 VCSH FEW032CB SCT053 27/16 Q1013 NOSIG
  • 051400Z 01005KT 310V050 9999 VCSH FEW032CB SCT050 27/14 Q1013 NOSIG

TAF TAF LBSF
Valido dal 05 a 12 ore il 06 a 12 ore UTC


051100Z 0512/0612 03010KT 9999 SCT040
TEMPO 0512/0518 VRB16G26KT 5000 TSRA FEW030CB BKN040
BECMG 0518/0520 VRB04KT
TEMPO 0602/0605 5000 BR SCT010
BECMG 0609/0611 03010KT



MetMap, La meteo Aeronautica in un colpo d'occhio ! - Copyright ORBIFLY Dicembre 2007 - Disclaimer

ORBIFLY MET'MAP TEAM :

Programmazione e sviluppo : Alexandra Zaïnal
Concezione : Baudouin d'Aumeries
Aiuto per la programmazione : Marc-Olivier Méhu
Supporto tecnico e logistico : Manuel Goepfert
Aiuto per la traduzione : Arnaldo La Scala

Contatto : metmap@orbifly.com




FONTI E CREDITI :

   NOAA